sensor_id;sensor_type;location;lat;lon;timestamp;P1;durP1;ratioP1;P2;durP2;ratioP2
54177;SDS011;40085;53.004;6.770;2023-12-04T00:01:08;5.00;;;4.55;;
54177;SDS011;40085;53.004;6.770;2023-12-04T00:03:34;5.28;;;4.78;;
54177;SDS011;40085;53.004;6.770;2023-12-04T00:05:59;4.75;;;4.35;;
54177;SDS011;40085;53.004;6.770;2023-12-04T00:08:25;5.22;;;4.72;;
54177;SDS011;40085;53.004;6.770;2023-12-04T00:10:50;4.50;;;4.10;;
54177;SDS011;40085;53.004;6.770;2023-12-04T00:13:17;5.07;;;4.65;;
54177;SDS011;40085;53.004;6.770;2023-12-04T00:15:43;5.22;;;4.78;;
54177;SDS011;40085;53.004;6.770;2023-12-04T00:18:09;5.25;;;4.82;;
54177;SDS011;40085;53.004;6.770;2023-12-04T00:20:35;5.10;;;4.70;;
54177;SDS011;40085;53.004;6.770;2023-12-04T00:23:01;4.63;;;4.22;;
54177;SDS011;40085;53.004;6.770;2023-12-04T00:25:27;5.78;;;5.28;;
54177;SDS011;40085;53.004;6.770;2023-12-04T00:27:53;5.47;;;4.97;;
54177;SDS011;40085;53.004;6.770;2023-12-04T00:30:19;5.25;;;4.80;;
54177;SDS011;40085;53.004;6.770;2023-12-04T00:32:45;4.95;;;4.45;;
54177;SDS011;40085;53.004;6.770;2023-12-04T00:35:10;5.55;;;5.05;;
54177;SDS011;40085;53.004;6.770;2023-12-04T00:37:36;4.43;;;3.58;;
54177;SDS011;40085;53.004;6.770;2023-12-04T00:40:03;4.60;;;4.20;;
54177;SDS011;40085;53.004;6.770;2023-12-04T00:42:30;4.43;;;4.03;;
54177;SDS011;40085;53.004;6.770;2023-12-04T00:44:56;5.15;;;4.65;;
54177;SDS011;40085;53.004;6.770;2023-12-04T00:47:22;4.35;;;3.95;;
54177;SDS011;40085;53.004;6.770;2023-12-04T00:49:47;4.22;;;3.83;;
54177;SDS011;40085;53.004;6.770;2023-12-04T00:52:13;4.75;;;4.35;;
54177;SDS011;40085;53.004;6.770;2023-12-04T00:54:39;4.55;;;4.15;;
54177;SDS011;40085;53.004;6.770;2023-12-04T00:57:06;4.95;;;4.45;;
54177;SDS011;40085;53.004;6.770;2023-12-04T00:59:32;4.40;;;4.00;;
54177;SDS011;40085;53.004;6.770;2023-12-04T01:01:57;4.35;;;3.95;;
54177;SDS011;40085;53.004;6.770;2023-12-04T01:04:23;4.43;;;4.03;;
54177;SDS011;40085;53.004;6.770;2023-12-04T01:06:48;4.53;;;4.13;;
54177;SDS011;40085;53.004;6.770;2023-12-04T01:09:14;4.00;;;3.70;;
54177;SDS011;40085;53.004;6.770;2023-12-04T01:11:40;4.95;;;4.55;;
54177;SDS011;40085;53.004;6.770;2023-12-04T01:14:06;4.15;;;3.75;;
54177;SDS011;40085;53.004;6.770;2023-12-04T01:16:31;4.82;;;4.38;;
54177;SDS011;40085;53.004;6.770;2023-12-04T01:18:57;4.43;;;4.03;;
54177;SDS011;40085;53.004;6.770;2023-12-04T01:21:22;4.40;;;4.00;;
54177;SDS011;40085;53.004;6.770;2023-12-04T01:23:48;4.13;;;3.72;;
54177;SDS011;40085;53.004;6.770;2023-12-04T01:26:14;5.05;;;4.45;;
54177;SDS011;40085;53.004;6.770;2023-12-04T01:28:39;4.57;;;4.18;;
54177;SDS011;40085;53.004;6.770;2023-12-04T01:31:05;4.63;;;4.22;;
54177;SDS011;40085;53.004;6.770;2023-12-04T01:33:31;4.43;;;4.03;;
54177;SDS011;40085;53.004;6.770;2023-12-04T01:35:57;4.57;;;4.18;;
54177;SDS011;40085;53.004;6.770;2023-12-04T01:38:23;5.07;;;4.40;;
54177;SDS011;40085;53.004;6.770;2023-12-04T01:40:48;4.47;;;4.07;;
54177;SDS011;40085;53.004;6.770;2023-12-04T01:43:14;5.13;;;4.65;;
54177;SDS011;40085;53.004;6.770;2023-12-04T01:45:40;5.60;;;5.10;;
54177;SDS011;40085;53.004;6.770;2023-12-04T01:48:06;4.00;;;3.70;;
54177;SDS011;40085;53.004;6.770;2023-12-04T01:50:35;4.63;;;4.22;;
54177;SDS011;40085;53.004;6.770;2023-12-04T01:53:01;3.95;;;3.65;;
54177;SDS011;40085;53.004;6.770;2023-12-04T01:55:28;4.57;;;4.18;;
54177;SDS011;40085;53.004;6.770;2023-12-04T01:57:54;4.75;;;4.35;;
54177;SDS011;40085;53.004;6.770;2023-12-04T02:00:21;4.40;;;4.07;;
54177;SDS011;40085;53.004;6.770;2023-12-04T02:02:47;4.65;;;4.25;;
54177;SDS011;40085;53.004;6.770;2023-12-04T02:05:12;4.75;;;4.35;;
54177;SDS011;40085;53.004;6.770;2023-12-04T02:07:40;4.75;;;4.35;;
54177;SDS011;40085;53.004;6.770;2023-12-04T02:10:06;4.57;;;4.18;;
54177;SDS011;40085;53.004;6.770;2023-12-04T02:12:34;4.35;;;3.95;;
54177;SDS011;40085;53.004;6.770;2023-12-04T02:15:00;4.75;;;4.35;;
54177;SDS011;40085;53.004;6.770;2023-12-04T02:17:26;4.30;;;3.90;;
54177;SDS011;40085;53.004;6.770;2023-12-04T02:19:53;4.25;;;3.85;;
54177;SDS011;40085;53.004;6.770;2023-12-04T02:22:19;4.20;;;3.80;;
54177;SDS011;40085;53.004;6.770;2023-12-04T02:24:45;4.82;;;4.40;;
54177;SDS011;40085;53.004;6.770;2023-12-04T02:27:20;4.63;;;4.22;;
54177;SDS011;40085;53.004;6.770;2023-12-04T02:29:55;4.25;;;3.85;;
54177;SDS011;40085;53.004;6.770;2023-12-04T02:32:23;4.10;;;3.70;;
54177;SDS011;40085;53.004;6.770;2023-12-04T02:34:53;4.72;;;4.32;;
54177;SDS011;40085;53.004;6.770;2023-12-04T02:37:20;4.30;;;3.90;;
54177;SDS011;40085;53.004;6.770;2023-12-04T02:39:47;4.53;;;4.13;;
54177;SDS011;40085;53.004;6.770;2023-12-04T02:42:14;4.32;;;3.92;;
54177;SDS011;40085;53.004;6.770;2023-12-04T02:44:42;5.15;;;4.65;;
54177;SDS011;40085;53.004;6.770;2023-12-04T02:47:07;4.63;;;4.22;;
54177;SDS011;40085;53.004;6.770;2023-12-04T02:49:33;3.75;;;3.45;;
54177;SDS011;40085;53.004;6.770;2023-12-04T02:51:59;4.65;;;4.25;;
54177;SDS011;40085;53.004;6.770;2023-12-04T02:54:25;4.30;;;3.90;;
54177;SDS011;40085;53.004;6.770;2023-12-04T02:56:50;4.10;;;3.70;;
54177;SDS011;40085;53.004;6.770;2023-12-04T02:59:16;4.43;;;4.03;;
54177;SDS011;40085;53.004;6.770;2023-12-04T03:01:42;4.53;;;4.13;;
54177;SDS011;40085;53.004;6.770;2023-12-04T03:04:07;4.50;;;4.10;;
54177;SDS011;40085;53.004;6.770;2023-12-04T03:06:33;4.63;;;4.22;;
54177;SDS011;40085;53.004;6.770;2023-12-04T03:08:59;4.40;;;4.00;;
54177;SDS011;40085;53.004;6.770;2023-12-04T03:11:25;4.60;;;4.20;;
54177;SDS011;40085;53.004;6.770;2023-12-04T03:13:50;4.10;;;3.75;;
54177;SDS011;40085;53.004;6.770;2023-12-04T03:16:19;4.50;;;3.75;;
54177;SDS011;40085;53.004;6.770;2023-12-04T03:18:44;5.18;;;4.68;;
54177;SDS011;40085;53.004;6.770;2023-12-04T03:21:10;4.57;;;4.18;;
54177;SDS011;40085;53.004;6.770;2023-12-04T03:23:36;4.68;;;4.28;;
54177;SDS011;40085;53.004;6.770;2023-12-04T03:26:02;4.18;;;3.78;;
54177;SDS011;40085;53.004;6.770;2023-12-04T03:28:28;4.88;;;4.47;;
54177;SDS011;40085;53.004;6.770;2023-12-04T03:30:54;4.15;;;3.75;;
54177;SDS011;40085;53.004;6.770;2023-12-04T03:33:20;3.92;;;3.53;;
54177;SDS011;40085;53.004;6.770;2023-12-04T03:35:45;4.55;;;4.15;;
54177;SDS011;40085;53.004;6.770;2023-12-04T03:38:11;4.78;;;4.32;;
54177;SDS011;40085;53.004;6.770;2023-12-04T03:40:37;4.45;;;4.05;;
54177;SDS011;40085;53.004;6.770;2023-12-04T03:43:02;3.78;;;3.42;;
54177;SDS011;40085;53.004;6.770;2023-12-04T03:45:28;5.00;;;4.60;;
54177;SDS011;40085;53.004;6.770;2023-12-04T03:47:54;4.97;;;4.57;;
54177;SDS011;40085;53.004;6.770;2023-12-04T03:50:19;4.88;;;4.47;;
54177;SDS011;40085;53.004;6.770;2023-12-04T03:52:45;4.35;;;3.95;;
54177;SDS011;40085;53.004;6.770;2023-12-04T03:55:11;4.57;;;4.18;;
54177;SDS011;40085;53.004;6.770;2023-12-04T03:57:36;4.25;;;3.88;;
54177;SDS011;40085;53.004;6.770;2023-12-04T04:00:02;4.63;;;4.22;;
54177;SDS011;40085;53.004;6.770;2023-12-04T04:02:28;4.90;;;4.50;;
54177;SDS011;40085;53.004;6.770;2023-12-04T04:04:54;4.32;;;3.92;;
54177;SDS011;40085;53.004;6.770;2023-12-04T04:07:20;4.03;;;3.63;;
54177;SDS011;40085;53.004;6.770;2023-12-04T04:09:46;4.70;;;4.30;;
54177;SDS011;40085;53.004;6.770;2023-12-04T04:12:11;4.68;;;4.28;;
54177;SDS011;40085;53.004;6.770;2023-12-04T04:14:37;4.13;;;3.83;;
54177;SDS011;40085;53.004;6.770;2023-12-04T04:17:03;4.57;;;4.18;;
54177;SDS011;40085;53.004;6.770;2023-12-04T04:19:29;4.35;;;3.95;;
54177;SDS011;40085;53.004;6.770;2023-12-04T04:21:55;4.57;;;4.18;;
54177;SDS011;40085;53.004;6.770;2023-12-04T04:24:20;4.50;;;4.10;;
54177;SDS011;40085;53.004;6.770;2023-12-04T04:26:46;4.45;;;4.05;;
54177;SDS011;40085;53.004;6.770;2023-12-04T04:29:12;5.03;;;4.53;;
54177;SDS011;40085;53.004;6.770;2023-12-04T04:31:38;4.60;;;4.20;;
54177;SDS011;40085;53.004;6.770;2023-12-04T04:34:03;4.07;;;3.78;;
54177;SDS011;40085;53.004;6.770;2023-12-04T04:36:29;3.95;;;3.63;;
54177;SDS011;40085;53.004;6.770;2023-12-04T04:38:55;4.72;;;4.32;;
54177;SDS011;40085;53.004;6.770;2023-12-04T04:41:20;4.47;;;4.07;;
54177;SDS011;40085;53.004;6.770;2023-12-04T04:43:46;4.00;;;3.67;;
54177;SDS011;40085;53.004;6.770;2023-12-04T04:46:12;4.88;;;4.43;;
54177;SDS011;40085;53.004;6.770;2023-12-04T04:48:39;4.20;;;3.80;;
54177;SDS011;40085;53.004;6.770;2023-12-04T04:51:05;4.10;;;3.70;;
54177;SDS011;40085;53.004;6.770;2023-12-04T04:53:31;4.57;;;4.18;;
54177;SDS011;40085;53.004;6.770;2023-12-04T04:55:57;3.88;;;3.58;;
54177;SDS011;40085;53.004;6.770;2023-12-04T04:58:22;4.35;;;3.95;;
54177;SDS011;40085;53.004;6.770;2023-12-04T05:00:48;3.88;;;3.58;;
54177;SDS011;40085;53.004;6.770;2023-12-04T05:03:14;4.35;;;3.95;;
54177;SDS011;40085;53.004;6.770;2023-12-04T05:05:39;4.45;;;4.05;;
54177;SDS011;40085;53.004;6.770;2023-12-04T05:08:05;3.70;;;3.40;;
54177;SDS011;40085;53.004;6.770;2023-12-04T05:10:31;3.83;;;3.53;;
54177;SDS011;40085;53.004;6.770;2023-12-04T05:12:56;4.43;;;4.03;;
54177;SDS011;40085;53.004;6.770;2023-12-04T05:15:22;4.43;;;4.03;;
54177;SDS011;40085;53.004;6.770;2023-12-04T05:17:48;4.50;;;4.05;;
54177;SDS011;40085;53.004;6.770;2023-12-04T05:20:13;4.20;;;3.80;;
54177;SDS011;40085;53.004;6.770;2023-12-04T05:22:39;3.97;;;3.65;;
54177;SDS011;40085;53.004;6.770;2023-12-04T05:25:05;3.90;;;3.50;;
54177;SDS011;40085;53.004;6.770;2023-12-04T05:27:31;4.70;;;4.30;;
54177;SDS011;40085;53.004;6.770;2023-12-04T05:29:57;3.97;;;3.67;;
54177;SDS011;40085;53.004;6.770;2023-12-04T05:32:22;3.90;;;3.60;;
54177;SDS011;40085;53.004;6.770;2023-12-04T05:34:48;4.50;;;4.10;;
54177;SDS011;40085;53.004;6.770;2023-12-04T05:37:14;3.65;;;3.35;;
54177;SDS011;40085;53.004;6.770;2023-12-04T05:39:40;4.32;;;3.92;;
54177;SDS011;40085;53.004;6.770;2023-12-04T05:42:06;4.32;;;3.92;;
54177;SDS011;40085;53.004;6.770;2023-12-04T05:44:33;4.30;;;3.72;;
54177;SDS011;40085;53.004;6.770;2023-12-04T05:46:59;4.35;;;3.95;;
54177;SDS011;40085;53.004;6.770;2023-12-04T05:49:25;4.15;;;3.85;;
54177;SDS011;40085;53.004;6.770;2023-12-04T05:51:51;4.93;;;4.53;;
54177;SDS011;40085;53.004;6.770;2023-12-04T05:54:16;4.00;;;3.60;;
54177;SDS011;40085;53.004;6.770;2023-12-04T05:56:42;4.38;;;3.97;;
54177;SDS011;40085;53.004;6.770;2023-12-04T05:59:08;4.32;;;3.92;;
54177;SDS011;40085;53.004;6.770;2023-12-04T06:01:33;3.72;;;3.42;;
54177;SDS011;40085;53.004;6.770;2023-12-04T06:03:59;4.55;;;4.15;;
54177;SDS011;40085;53.004;6.770;2023-12-04T06:06:25;3.97;;;3.65;;
54177;SDS011;40085;53.004;6.770;2023-12-04T06:08:50;4.00;;;3.65;;
54177;SDS011;40085;53.004;6.770;2023-12-04T06:11:16;3.65;;;3.35;;
54177;SDS011;40085;53.004;6.770;2023-12-04T06:13:41;3.70;;;3.40;;
54177;SDS011;40085;53.004;6.770;2023-12-04T06:16:07;4.15;;;3.85;;
54177;SDS011;40085;53.004;6.770;2023-12-04T06:18:33;3.60;;;3.30;;
54177;SDS011;40085;53.004;6.770;2023-12-04T06:20:59;4.32;;;3.92;;
54177;SDS011;40085;53.004;6.770;2023-12-04T06:23:25;4.05;;;3.75;;
54177;SDS011;40085;53.004;6.770;2023-12-04T06:25:50;3.72;;;3.40;;
54177;SDS011;40085;53.004;6.770;2023-12-04T06:28:16;3.60;;;3.30;;
54177;SDS011;40085;53.004;6.770;2023-12-04T06:30:42;4.20;;;3.80;;
54177;SDS011;40085;53.004;6.770;2023-12-04T06:33:08;3.90;;;3.42;;
54177;SDS011;40085;53.004;6.770;2023-12-04T06:35:34;3.78;;;3.40;;
54177;SDS011;40085;53.004;6.770;2023-12-04T06:38:02;3.78;;;3.47;;
54177;SDS011;40085;53.004;6.770;2023-12-04T06:40:32;4.18;;;3.78;;
54177;SDS011;40085;53.004;6.770;2023-12-04T06:42:58;4.07;;;3.78;;
54177;SDS011;40085;53.004;6.770;2023-12-04T06:45:24;4.05;;;3.67;;
54177;SDS011;40085;53.004;6.770;2023-12-04T06:47:50;4.28;;;3.88;;
54177;SDS011;40085;53.004;6.770;2023-12-04T06:50:16;4.05;;;3.65;;
54177;SDS011;40085;53.004;6.770;2023-12-04T06:52:42;3.92;;;3.55;;
54177;SDS011;40085;53.004;6.770;2023-12-04T06:55:08;3.42;;;3.13;;
54177;SDS011;40085;53.004;6.770;2023-12-04T06:57:34;4.13;;;3.72;;
54177;SDS011;40085;53.004;6.770;2023-12-04T06:59:59;4.10;;;3.70;;
54177;SDS011;40085;53.004;6.770;2023-12-04T07:02:25;4.45;;;4.05;;
54177;SDS011;40085;53.004;6.770;2023-12-04T07:04:51;3.85;;;3.55;;
54177;SDS011;40085;53.004;6.770;2023-12-04T07:07:17;3.97;;;3.67;;
54177;SDS011;40085;53.004;6.770;2023-12-04T07:09:42;3.80;;;3.50;;
54177;SDS011;40085;53.004;6.770;2023-12-04T07:12:08;3.60;;;3.30;;
54177;SDS011;40085;53.004;6.770;2023-12-04T07:14:34;3.28;;;2.97;;
54177;SDS011;40085;53.004;6.770;2023-12-04T07:16:59;3.78;;;3.47;;
54177;SDS011;40085;53.004;6.770;2023-12-04T07:19:25;4.10;;;3.47;;
54177;SDS011;40085;53.004;6.770;2023-12-04T07:21:52;4.10;;;3.70;;
54177;SDS011;40085;53.004;6.770;2023-12-04T07:24:18;3.38;;;3.08;;
54177;SDS011;40085;53.004;6.770;2023-12-04T07:26:44;4.10;;;3.70;;
54177;SDS011;40085;53.004;6.770;2023-12-04T07:29:09;3.97;;;3.42;;
54177;SDS011;40085;53.004;6.770;2023-12-04T07:31:35;4.30;;;3.90;;
54177;SDS011;40085;53.004;6.770;2023-12-04T07:34:02;3.95;;;3.55;;
54177;SDS011;40085;53.004;6.770;2023-12-04T07:36:28;4.18;;;3.78;;
54177;SDS011;40085;53.004;6.770;2023-12-04T07:38:54;4.05;;;3.70;;
54177;SDS011;40085;53.004;6.770;2023-12-04T07:41:20;3.92;;;3.58;;
54177;SDS011;40085;53.004;6.770;2023-12-04T07:43:46;3.50;;;3.20;;
54177;SDS011;40085;53.004;6.770;2023-12-04T07:46:12;3.20;;;2.92;;
54177;SDS011;40085;53.004;6.770;2023-12-04T07:48:39;3.30;;;3.00;;
54177;SDS011;40085;53.004;6.770;2023-12-04T07:51:05;2.72;;;2.53;;
54177;SDS011;40085;53.004;6.770;2023-12-04T07:53:32;2.90;;;2.70;;
54177;SDS011;40085;53.004;6.770;2023-12-04T07:56:00;3.72;;;3.42;;
54177;SDS011;40085;53.004;6.770;2023-12-04T07:58:28;3.50;;;3.20;;
54177;SDS011;40085;53.004;6.770;2023-12-04T08:00:54;3.60;;;3.10;;
54177;SDS011;40085;53.004;6.770;2023-12-04T08:03:19;3.33;;;3.03;;
54177;SDS011;40085;53.004;6.770;2023-12-04T08:05:45;3.40;;;3.10;;
54177;SDS011;40085;53.004;6.770;2023-12-04T08:08:10;3.65;;;3.33;;
54177;SDS011;40085;53.004;6.770;2023-12-04T08:10:36;3.20;;;2.90;;
54177;SDS011;40085;53.004;6.770;2023-12-04T08:13:02;3.55;;;3.25;;
54177;SDS011;40085;53.004;6.770;2023-12-04T08:15:28;3.15;;;2.85;;
54177;SDS011;40085;53.004;6.770;2023-12-04T08:17:53;3.58;;;3.28;;
54177;SDS011;40085;53.004;6.770;2023-12-04T08:20:20;3.78;;;3.47;;
54177;SDS011;40085;53.004;6.770;2023-12-04T08:22:47;3.00;;;2.80;;
54177;SDS011;40085;53.004;6.770;2023-12-04T08:25:13;3.33;;;3.03;;
54177;SDS011;40085;53.004;6.770;2023-12-04T08:27:39;3.20;;;2.90;;
54177;SDS011;40085;53.004;6.770;2023-12-04T08:30:05;3.42;;;3.13;;
54177;SDS011;40085;53.004;6.770;2023-12-04T08:32:31;2.78;;;2.50;;
54177;SDS011;40085;53.004;6.770;2023-12-04T08:34:56;3.03;;;2.72;;
54177;SDS011;40085;53.004;6.770;2023-12-04T08:37:22;2.75;;;2.55;;
54177;SDS011;40085;53.004;6.770;2023-12-04T08:39:48;3.15;;;2.88;;
54177;SDS011;40085;53.004;6.770;2023-12-04T08:42:14;2.92;;;2.72;;
54177;SDS011;40085;53.004;6.770;2023-12-04T08:44:39;2.67;;;2.47;;
54177;SDS011;40085;53.004;6.770;2023-12-04T08:47:05;2.67;;;2.47;;
54177;SDS011;40085;53.004;6.770;2023-12-04T08:49:31;3.03;;;2.70;;
54177;SDS011;40085;53.004;6.770;2023-12-04T08:51:57;2.97;;;2.65;;
54177;SDS011;40085;53.004;6.770;2023-12-04T08:54:23;2.70;;;2.50;;
54177;SDS011;40085;53.004;6.770;2023-12-04T08:56:49;3.10;;;2.80;;
54177;SDS011;40085;53.004;6.770;2023-12-04T08:59:15;3.05;;;2.80;;
54177;SDS011;40085;53.004;6.770;2023-12-04T09:01:42;2.90;;;2.65;;
54177;SDS011;40085;53.004;6.770;2023-12-04T09:04:08;3.30;;;3.00;;
54177;SDS011;40085;53.004;6.770;2023-12-04T09:06:35;3.22;;;2.92;;
54177;SDS011;40085;53.004;6.770;2023-12-04T09:09:00;2.70;;;2.50;;
54177;SDS011;40085;53.004;6.770;2023-12-04T09:11:27;3.17;;;2.88;;
54177;SDS011;40085;53.004;6.770;2023-12-04T09:13:53;2.60;;;2.40;;
54177;SDS011;40085;53.004;6.770;2023-12-04T09:16:19;2.58;;;2.38;;
54177;SDS011;40085;53.004;6.770;2023-12-04T09:18:45;2.85;;;2.58;;
54177;SDS011;40085;53.004;6.770;2023-12-04T09:21:11;2.92;;;2.55;;
54177;SDS011;40085;53.004;6.770;2023-12-04T09:23:37;3.22;;;2.92;;
54177;SDS011;40085;53.004;6.770;2023-12-04T09:26:03;2.42;;;2.22;;
54177;SDS011;40085;53.004;6.770;2023-12-04T09:28:28;2.60;;;2.40;;
54177;SDS011;40085;53.004;6.770;2023-12-04T09:30:54;2.50;;;2.30;;
54177;SDS011;40085;53.004;6.770;2023-12-04T09:33:23;2.65;;;2.42;;
54177;SDS011;40085;53.004;6.770;2023-12-04T09:35:48;4.15;;;2.55;;
54177;SDS011;40085;53.004;6.770;2023-12-04T09:38:14;2.45;;;2.25;;
54177;SDS011;40085;53.004;6.770;2023-12-04T09:40:39;2.05;;;1.95;;
54177;SDS011;40085;53.004;6.770;2023-12-04T09:43:05;2.50;;;2.30;;
54177;SDS011;40085;53.004;6.770;2023-12-04T09:45:32;2.90;;;2.60;;
54177;SDS011;40085;53.004;6.770;2023-12-04T09:47:58;2.50;;;2.30;;
54177;SDS011;40085;53.004;6.770;2023-12-04T09:50:25;2.28;;;2.03;;
54177;SDS011;40085;53.004;6.770;2023-12-04T09:52:51;2.45;;;2.25;;
54177;SDS011;40085;53.004;6.770;2023-12-04T09:55:18;3.00;;;2.70;;
54177;SDS011;40085;53.004;6.770;2023-12-04T09:57:44;2.15;;;1.70;;
54177;SDS011;40085;53.004;6.770;2023-12-04T10:00:11;2.38;;;2.17;;
54177;SDS011;40085;53.004;6.770;2023-12-04T10:02:38;2.60;;;2.40;;
54177;SDS011;40085;53.004;6.770;2023-12-04T10:05:06;2.33;;;2.13;;
54177;SDS011;40085;53.004;6.770;2023-12-04T10:07:32;2.15;;;1.88;;
54177;SDS011;40085;53.004;6.770;2023-12-04T10:09:58;1.90;;;1.80;;
54177;SDS011;40085;53.004;6.770;2023-12-04T10:12:23;2.85;;;2.65;;
54177;SDS011;40085;53.004;6.770;2023-12-04T10:15:03;2.15;;;1.98;;
54177;SDS011;40085;53.004;6.770;2023-12-04T10:17:34;2.25;;;2.08;;
54177;SDS011;40085;53.004;6.770;2023-12-04T10:20:08;2.67;;;2.47;;
54177;SDS011;40085;53.004;6.770;2023-12-04T10:22:40;3.10;;;2.35;;
54177;SDS011;40085;53.004;6.770;2023-12-04T10:25:21;2.10;;;1.90;;
54177;SDS011;40085;53.004;6.770;2023-12-04T10:27:47;2.10;;;1.90;;
54177;SDS011;40085;53.004;6.770;2023-12-04T10:30:28;2.30;;;2.10;;
54177;SDS011;40085;53.004;6.770;2023-12-04T10:33:01;2.05;;;1.85;;
54177;SDS011;40085;53.004;6.770;2023-12-04T10:35:32;1.80;;;1.70;;
54177;SDS011;40085;53.004;6.770;2023-12-04T10:38:01;2.03;;;1.90;;
54177;SDS011;40085;53.004;6.770;2023-12-04T10:40:31;1.98;;;1.75;;
54177;SDS011;40085;53.004;6.770;2023-12-04T10:45:46;1.90;;;1.80;;
54177;SDS011;40085;53.004;6.770;2023-12-04T10:48:14;2.20;;;2.00;;
54177;SDS011;40085;53.004;6.770;2023-12-04T10:50:41;1.80;;;1.70;;
54177;SDS011;40085;53.004;6.770;2023-12-04T10:53:09;2.17;;;1.98;;
54177;SDS011;40085;53.004;6.770;2023-12-04T10:55:36;2.17;;;1.98;;
54177;SDS011;40085;53.004;6.770;2023-12-04T10:58:04;2.30;;;2.00;;
54177;SDS011;40085;53.004;6.770;2023-12-04T11:00:35;2.30;;;2.10;;
54177;SDS011;40085;53.004;6.770;2023-12-04T11:03:07;2.30;;;2.10;;
54177;SDS011;40085;53.004;6.770;2023-12-04T11:05:36;2.30;;;2.10;;
54177;SDS011;40085;53.004;6.770;2023-12-04T11:08:05;1.70;;;1.60;;
54177;SDS011;40085;53.004;6.770;2023-12-04T11:10:32;1.90;;;1.80;;
54177;SDS011;40085;53.004;6.770;2023-12-04T11:13:01;2.33;;;2.13;;
54177;SDS011;40085;53.004;6.770;2023-12-04T11:15:40;1.80;;;1.70;;
54177;SDS011;40085;53.004;6.770;2023-12-04T11:18:12;2.30;;;2.10;;
54177;SDS011;40085;53.004;6.770;2023-12-04T11:20:58;2.03;;;1.83;;
54177;SDS011;40085;53.004;6.770;2023-12-04T11:23:29;2.47;;;1.95;;
54177;SDS011;40085;53.004;6.770;2023-12-04T11:25:56;1.90;;;1.80;;
54177;SDS011;40085;53.004;6.770;2023-12-04T11:28:22;2.85;;;2.03;;
54177;SDS011;40085;53.004;6.770;2023-12-04T11:30:49;2.15;;;1.95;;
54177;SDS011;40085;53.004;6.770;2023-12-04T11:33:15;2.10;;;1.90;;
54177;SDS011;40085;53.004;6.770;2023-12-04T11:35:41;2.60;;;2.33;;
54177;SDS011;40085;53.004;6.770;2023-12-04T11:38:06;1.95;;;1.80;;
54177;SDS011;40085;53.004;6.770;2023-12-04T11:40:34;2.35;;;2.15;;
54177;SDS011;40085;53.004;6.770;2023-12-04T11:43:04;2.42;;;2.22;;
54177;SDS011;40085;53.004;6.770;2023-12-04T11:45:47;2.13;;;1.92;;
54177;SDS011;40085;53.004;6.770;2023-12-04T11:48:14;2.10;;;1.90;;
54177;SDS011;40085;53.004;6.770;2023-12-04T11:50:39;2.30;;;2.10;;
54177;SDS011;40085;53.004;6.770;2023-12-04T11:53:05;2.03;;;1.83;;
54177;SDS011;40085;53.004;6.770;2023-12-04T11:55:31;2.35;;;2.15;;
54177;SDS011;40085;53.004;6.770;2023-12-04T11:58:04;1.90;;;1.80;;
54177;SDS011;40085;53.004;6.770;2023-12-04T12:00:37;2.00;;;1.90;;
54177;SDS011;40085;53.004;6.770;2023-12-04T12:05:31;1.80;;;1.70;;
54177;SDS011;40085;53.004;6.770;2023-12-04T12:08:01;2.20;;;2.00;;
54177;SDS011;40085;53.004;6.770;2023-12-04T12:10:28;1.60;;;1.50;;
54177;SDS011;40085;53.004;6.770;2023-12-04T12:12:55;2.10;;;1.90;;
54177;SDS011;40085;53.004;6.770;2023-12-04T12:15:21;1.90;;;1.80;;
54177;SDS011;40085;53.004;6.770;2023-12-04T12:17:47;1.98;;;1.80;;
54177;SDS011;40085;53.004;6.770;2023-12-04T12:20:15;2.25;;;1.95;;
54177;SDS011;40085;53.004;6.770;2023-12-04T12:22:40;1.80;;;1.70;;
54177;SDS011;40085;53.004;6.770;2023-12-04T12:25:09;2.00;;;1.80;;
54177;SDS011;40085;53.004;6.770;2023-12-04T12:27:35;2.08;;;1.88;;
54177;SDS011;40085;53.004;6.770;2023-12-04T12:30:01;2.17;;;1.98;;
54177;SDS011;40085;53.004;6.770;2023-12-04T12:32:29;2.10;;;1.90;;
54177;SDS011;40085;53.004;6.770;2023-12-04T12:34:58;1.85;;;1.75;;
54177;SDS011;40085;53.004;6.770;2023-12-04T12:37:24;2.60;;;2.40;;
54177;SDS011;40085;53.004;6.770;2023-12-04T12:39:50;2.00;;;1.80;;
54177;SDS011;40085;53.004;6.770;2023-12-04T12:42:20;1.73;;;1.63;;
54177;SDS011;40085;53.004;6.770;2023-12-04T12:44:47;3.13;;;2.10;;
54177;SDS011;40085;53.004;6.770;2023-12-04T12:47:15;2.10;;;1.90;;
54177;SDS011;40085;53.004;6.770;2023-12-04T12:49:41;1.70;;;1.60;;
54177;SDS011;40085;53.004;6.770;2023-12-04T12:52:06;1.90;;;1.80;;
54177;SDS011;40085;53.004;6.770;2023-12-04T12:54:42;2.17;;;1.98;;
54177;SDS011;40085;53.004;6.770;2023-12-04T12:57:09;2.03;;;1.85;;
54177;SDS011;40085;53.004;6.770;2023-12-04T12:59:37;2.03;;;1.83;;
54177;SDS011;40085;53.004;6.770;2023-12-04T13:02:04;1.95;;;1.85;;
54177;SDS011;40085;53.004;6.770;2023-12-04T13:04:48;1.55;;;1.45;;
54177;SDS011;40085;53.004;6.770;2023-12-04T13:07:15;1.83;;;1.73;;
54177;SDS011;40085;53.004;6.770;2023-12-04T13:09:41;2.17;;;1.98;;
54177;SDS011;40085;53.004;6.770;2023-12-04T13:12:08;1.80;;;1.70;;
54177;SDS011;40085;53.004;6.770;2023-12-04T13:14:35;2.20;;;1.98;;
54177;SDS011;40085;53.004;6.770;2023-12-04T13:17:01;1.63;;;1.52;;
54177;SDS011;40085;53.004;6.770;2023-12-04T13:19:27;2.00;;;1.80;;
54177;SDS011;40085;53.004;6.770;2023-12-04T13:21:53;2.33;;;2.13;;
54177;SDS011;40085;53.004;6.770;2023-12-04T13:24:18;2.22;;;2.08;;
54177;SDS011;40085;53.004;6.770;2023-12-04T13:26:44;2.00;;;1.80;;
54177;SDS011;40085;53.004;6.770;2023-12-04T13:29:11;2.20;;;2.00;;
54177;SDS011;40085;53.004;6.770;2023-12-04T13:31:38;2.15;;;1.98;;
54177;SDS011;40085;53.004;6.770;2023-12-04T13:34:04;2.17;;;2.03;;
54177;SDS011;40085;53.004;6.770;2023-12-04T13:36:32;2.20;;;2.00;;
54177;SDS011;40085;53.004;6.770;2023-12-04T13:38:59;2.13;;;1.92;;
54177;SDS011;40085;53.004;6.770;2023-12-04T13:41:25;1.75;;;1.65;;
54177;SDS011;40085;53.004;6.770;2023-12-04T13:44:09;1.75;;;1.65;;
54177;SDS011;40085;53.004;6.770;2023-12-04T13:46:37;2.20;;;2.00;;
54177;SDS011;40085;53.004;6.770;2023-12-04T13:49:02;2.10;;;2.00;;
54177;SDS011;40085;53.004;6.770;2023-12-04T13:51:28;2.70;;;2.20;;
54177;SDS011;40085;53.004;6.770;2023-12-04T13:53:54;1.83;;;1.70;;
54177;SDS011;40085;53.004;6.770;2023-12-04T13:56:26;2.22;;;2.03;;
54177;SDS011;40085;53.004;6.770;2023-12-04T13:59:14;1.85;;;1.75;;
54177;SDS011;40085;53.004;6.770;2023-12-04T14:01:44;1.90;;;1.80;;
54177;SDS011;40085;53.004;6.770;2023-12-04T14:04:11;2.28;;;2.08;;
54177;SDS011;40085;53.004;6.770;2023-12-04T14:06:37;2.30;;;2.10;;
54177;SDS011;40085;53.004;6.770;2023-12-04T14:09:03;2.13;;;1.92;;
54177;SDS011;40085;53.004;6.770;2023-12-04T14:11:35;2.30;;;2.10;;
54177;SDS011;40085;53.004;6.770;2023-12-04T14:14:04;2.10;;;1.90;;
54177;SDS011;40085;53.004;6.770;2023-12-04T14:16:30;2.30;;;2.00;;
54177;SDS011;40085;53.004;6.770;2023-12-04T14:18:56;2.38;;;2.17;;
54177;SDS011;40085;53.004;6.770;2023-12-04T14:21:21;2.10;;;1.90;;
54177;SDS011;40085;53.004;6.770;2023-12-04T14:23:47;2.63;;;2.03;;
54177;SDS011;40085;53.004;6.770;2023-12-04T14:26:13;2.08;;;1.88;;
54177;SDS011;40085;53.004;6.770;2023-12-04T14:28:39;2.22;;;2.03;;
54177;SDS011;40085;53.004;6.770;2023-12-04T14:31:05;2.15;;;1.95;;
54177;SDS011;40085;53.004;6.770;2023-12-04T14:33:32;2.40;;;2.20;;
54177;SDS011;40085;53.004;6.770;2023-12-04T14:35:58;2.67;;;2.47;;
54177;SDS011;40085;53.004;6.770;2023-12-04T14:38:23;2.40;;;2.20;;
54177;SDS011;40085;53.004;6.770;2023-12-04T14:40:50;2.42;;;2.20;;
54177;SDS011;40085;53.004;6.770;2023-12-04T14:43:15;2.28;;;2.08;;
54177;SDS011;40085;53.004;6.770;2023-12-04T14:45:41;2.40;;;2.20;;
54177;SDS011;40085;53.004;6.770;2023-12-04T14:48:07;2.10;;;1.90;;
54177;SDS011;40085;53.004;6.770;2023-12-04T14:50:33;2.20;;;2.00;;